Photometre #399[NE_1.2] OHP_OBSERVATOIRE AOT

File : 20200924_399.hum

24/09/2020,06:17:16,TEMP=16.1,BA=5.64,STAT.A=1.0,ExtBa=13.44
24/09/2020,06:20:51,TEMP=16.3,BA=5.64,STAT.A=1.0,ExtBa=13.43
24/09/2020,06:25:02,TEMP=16.4,BA=5.64,STAT.A=1.0,ExtBa=13.42
24/09/2020,06:30:01,TEMP=16.3,BA=5.64,STAT.A=1.0,ExtBa=13.43
24/09/2020,06:36:02,TEMP=16.2,BA=5.64,STAT.A=1.0,ExtBa=13.44
24/09/2020,06:43:27,TEMP=16.2,BA=5.64,STAT.A=1.0,ExtBa=13.44
24/09/2020,06:52:51,TEMP=16.9,BA=5.64,STAT.B=1.0,ExtBa=13.41
24/09/2020,07:02:25,TEMP=17.9,BA=5.56,STAT.A=1.0,ExtBa=12.80
24/09/2020,07:04:19,TEMP=18.3,BA=5.56,STAT.A=1.0,ExtBa=12.86
24/09/2020,07:08:04,TEMP=18.3,BA=5.56,STAT.A=1.0,ExtBa=12.99
24/09/2020,07:14:34,TEMP=18.3,BA=5.64,STAT.A=1.0,ExtBa=13.12
24/09/2020,07:22:01,TEMP=18.9,BA=5.64,STAT.C=1.0,ExtBa=13.18
24/09/2020,07:37:20,TEMP=20.7,BA=5.52,STAT.A=1.0,ExtBa=12.73
24/09/2020,07:40:58,TEMP=20.6,BA=5.64,STAT.A=1.0,ExtBa=12.90
24/09/2020,07:53:19,TEMP=19.8,BA=5.64,STAT.A=1.0,ExtBa=13.20
24/09/2020,08:08:36,TEMP=21.4,BA=5.64,STAT.A=1.0,ExtBa=13.33
24/09/2020,08:28:08,TEMP=21.3,BA=5.64,STAT.B=1.0,ExtBa=13.38
24/09/2020,08:37:07,TEMP=21.7,BA=5.56,STAT.F,ExtBa=12.79
24/09/2020,08:51:24,TEMP=22.6,BA=5.52,STAT.D=1.0,ExtBa=12.74
24/09/2020,08:59:32,TEMP=23.0,BA=5.52,STAT.D=1.0,ExtBa=13.03
24/09/2020,09:14:32,TEMP=23.6,BA=5.64,STAT.D=1.0,ExtBa=13.22
24/09/2020,09:29:33,TEMP=24.6,BA=5.64,STAT.F,ExtBa=13.27
24/09/2020,09:55:05,TEMP=25.0,BA=5.52,STAT.D=1.0,ExtBa=13.12
24/09/2020,10:29:33,TEMP=26.4,BA=5.64,STAT.F,ExtBa=13.29
24/09/2020,10:44:32,TEMP=26.9,BA=5.52,STAT.D=1.0,ExtBa=12.87
24/09/2020,10:59:32,TEMP=26.2,BA=5.64,STAT.D=1.0,ExtBa=13.18
24/09/2020,11:14:32,TEMP=25.9,BA=5.64,STAT.D=1.0,ExtBa=13.27
24/09/2020,11:29:34,TEMP=26.3,BA=5.64,STAT.F,ExtBa=13.30
24/09/2020,11:44:32,TEMP=25.2,BA=5.64,STAT.D=1.0,ExtBa=13.34
24/09/2020,11:59:32,TEMP=24.6,BA=5.64,STAT.D=1.0,ExtBa=13.36
24/09/2020,12:14:32,TEMP=23.8,BA=5.64,STAT.D=1.0,ExtBa=13.38
24/09/2020,12:29:34,TEMP=23.2,BA=5.64,STAT.F,ExtBa=13.38
24/09/2020,12:44:32,TEMP=24.5,BA=5.64,STAT.D=1.0,ExtBa=13.42
24/09/2020,12:59:32,TEMP=24.1,BA=5.64,STAT.D=1.0,ExtBa=13.44
24/09/2020,13:14:32,TEMP=24.1,BA=5.64,STAT.D=1.0,ExtBa=13.43
24/09/2020,13:29:34,TEMP=24.3,BA=5.64,STAT.F,ExtBa=13.37
24/09/2020,13:38:55,TEMP=24.3,BA=5.52,STAT.b=1.0
24/09/2020,13:44:25,TEMP=24.3,BA=5.60,STAT.b=1.0
24/09/2020,13:59:31,TEMP=23.2,BA=5.64,STAT.D=1.0,ExtBa=13.41
24/09/2020,14:14:32,TEMP=22.8,BA=5.64,STAT.D=1.0,ExtBa=13.42
24/09/2020,14:29:33,TEMP=22.5,BA=5.64,STAT.F,ExtBa=13.36
24/09/2020,14:31:27,TEMP=22.8,BA=5.52,STAT.B=1.0,ExtBa=13.34
24/09/2020,14:50:30,TEMP=21.8,BA=5.64,STAT.A=1.0,ExtBa=13.37
24/09/2020,15:05:47,TEMP=20.9,BA=5.64,STAT.A=1.0,ExtBa=13.36
24/09/2020,15:18:08,TEMP=20.5,BA=5.64,STAT.A=1.0,ExtBa=13.35
24/09/2020,15:28:24,TEMP=20.2,BA=5.60,STAT.A=1.0,ExtBa=13.35
24/09/2020,15:37:04,TEMP=20.0,BA=5.56,STAT.C=1.0,ExtBa=13.35
24/09/2020,15:44:32,TEMP=19.8,BA=5.64,STAT.A=1.0,ExtBa=13.35
24/09/2020,15:51:00,TEMP=19.6,BA=5.64,STAT.A=1.0,ExtBa=13.34
24/09/2020,15:56:42,TEMP=19.5,BA=5.64,STAT.A=1.0,ExtBa=13.34
24/09/2020,16:01:43,TEMP=19.4,BA=5.64,STAT.A=1.0,ExtBa=13.33
24/09/2020,16:06:13,TEMP=19.3,BA=5.64,STAT.B=1.0,ExtBa=13.33
24/09/2020,16:15:37,TEMP=19.0,BA=5.64,STAT.A=1.0,ExtBa=13.33
24/09/2020,16:23:02,TEMP=18.9,BA=5.64,STAT.A=1.0,ExtBa=13.33
24/09/2020,16:29:03,TEMP=18.8,BA=5.64,STAT.A=1.0,ExtBa=13.32
24/09/2020,16:34:02,TEMP=18.6,BA=5.56,STAT.A=1.0,ExtBa=13.32
24/09/2020,16:38:22,TEMP=18.5,BA=5.56,STAT.A=1.0,ExtBa=13.31
24/09/2020,16:41:48,TEMP=18.5,BA=5.60,STAT.A=1.0,ExtBa=13.31